Time;durP1;ratioP1;P1;durP2;ratioP2;P2;SDS_P1;SDS_P2;PMS_P1;PMS_P2;Temp;Humidity;BMP_temperature;BMP_pressure;BME280_temperature;BME280_humidity;BME280_pressure;Samples;Min_cycle;Max_cycle;Signal;HPM_P1;HPM_P2
2022/12/03 00:02:07;;;;;;;0.50;0.20;;;2.50;26.00;;;;;;6156165;23;20421;-75
2022/12/03 00:04:35;;;;;;;5.77;4.50;;;2.50;25.20;;;;;;6155743;23;20419;-75
2022/12/03 00:07:04;;;;;;;2.27;1.43;;;2.50;28.80;;;;;;6156164;23;20401;-75
2022/12/03 00:09:31;;;;;;;2.23;2.13;;;2.50;27.50;;;;;;6156819;23;20413;-75
2022/12/03 00:11:59;;;;;;;0.50;0.10;;;2.50;20.80;;;;;;6157745;23;20436;-76
2022/12/03 00:14:27;;;;;;;6.40;0.90;;;2.50;25.20;;;;;;6161131;23;20952;-76
2022/12/03 00:16:57;;;;;;;0.57;0.17;;;2.50;24.60;;;;;;6156370;23;20397;-76
2022/12/03 00:19:24;;;;;;;0.50;0.10;;;2.50;24.30;;;;;;6156270;23;20436;-77
2022/12/03 00:21:52;;;;;;;1.07;0.87;;;2.50;17.00;;;;;;6155413;23;20417;-75
2022/12/03 00:24:20;;;;;;;4.70;1.07;;;2.50;15.50;;;;;;6156186;23;20902;-74
2022/12/03 00:26:49;;;;;;;1.27;0.70;;;2.50;14.40;;;;;;6155658;23;20457;-75
2022/12/03 00:29:16;;;;;;;0.97;0.37;;;2.50;10.90;;;;;;6156298;23;20389;-75
2022/12/03 00:31:45;;;;;;;0.50;0.10;;;2.50;8.60;;;;;;6156090;23;20425;-75
2022/12/03 00:34:14;;;;;;;1.67;0.27;;;2.50;12.80;;;;;;6155622;23;20405;-77
2022/12/03 00:36:42;;;;;;;2.57;2.40;;;2.50;5.10;;;;;;6155837;23;20401;-75
2022/12/03 00:39:09;;;;;;;1.83;1.70;;;2.50;3.70;;;;;;6156162;23;20428;-77
2022/12/03 00:41:37;;;;;;;0.50;0.20;;;2.50;1.20;;;;;;6156312;23;20431;-76
2022/12/03 00:44:05;;;;;;;1.80;0.77;;;2.50;4.70;;;;;;6155021;23;20404;-76
2022/12/03 00:46:33;;;;;;;2.70;2.50;;;2.50;1.00;;;;;;6154072;23;20455;-76
2022/12/03 00:49:01;;;;;;;2.87;2.67;;;2.60;2.20;;;;;;6153131;23;20425;-75
2022/12/03 00:51:30;;;;;;;2.87;0.83;;;2.60;1.00;;;;;;6154940;23;20441;-76
2022/12/03 00:53:58;;;;;;;4.93;0.47;;;2.60;1.00;;;;;;6154707;23;20740;-76
2022/12/03 00:56:26;;;;;;;2.47;2.30;;;2.60;1.00;;;;;;6155695;23;20433;-77
2022/12/03 00:58:54;;;;;;;1.33;0.47;;;2.60;1.00;;;;;;6155672;23;20409;-77
2022/12/03 05:01:34;;;;;;;0.50;0.10;;;2.90;1.00;;;;;;6090490;23;20461;-76
2022/12/03 05:04:02;;;;;;;0.70;0.67;;;2.80;1.00;;;;;;6127308;23;20398;-75
2022/12/03 05:06:30;;;;;;;0.50;0.10;;;2.70;1.00;;;;;;6133742;23;20437;-73
2022/12/03 05:08:58;;;;;;;0.70;0.50;;;2.70;1.00;;;;;;6129337;23;20383;-76
2022/12/03 05:11:41;;;;;;;0.50;0.10;;;2.70;1.00;;;;;;6089060;23;20422;-76
2022/12/03 05:14:10;;;;;;;1.00;0.63;;;2.70;1.00;;;;;;6128111;23;20398;-75
2022/12/03 05:16:39;;;;;;;2.10;1.73;;;;;;;;;;6143552;23;20464;-76
2022/12/03 05:19:08;;;;;;;0.60;0.37;;;2.60;1.00;;;;;;6155507;23;20405;-76
2022/12/03 05:21:36;;;;;;;0.50;0.10;;;2.60;1.00;;;;;;6155429;23;20745;-76
2022/12/03 05:24:05;;;;;;;0.50;0.10;;;2.60;1.00;;;;;;6154957;23;20413;-76
2022/12/03 05:26:32;;;;;;;0.50;0.10;;;2.60;1.00;;;;;;6154772;23;20440;-76
2022/12/03 05:29:00;;;;;;;0.87;0.83;;;2.60;1.00;;;;;;6154888;23;20413;-76
2022/12/03 05:31:28;;;;;;;0.50;0.10;;;2.60;1.00;;;;;;6155660;23;20412;-76
2022/12/03 05:33:58;;;;;;;0.50;0.10;;;2.60;1.00;;;;;;6155399;23;20401;-76
2022/12/03 05:36:26;;;;;;;0.50;0.10;;;;;;;;;;6155549;23;20427;-77
2022/12/03 05:38:54;;;;;;;2.20;2.10;;;2.60;1.00;;;;;;6155518;23;21074;-76
2022/12/03 05:44:07;;;;;;;0.50;0.10;;;2.60;1.00;;;;;;6154966;23;20898;-76
2022/12/03 05:46:35;;;;;;;1.53;1.43;;;2.60;1.00;;;;;;6154881;23;20440;-76
2022/12/03 05:49:04;;;;;;;0.50;0.10;;;;;;;;;;6154952;23;20451;-77
2022/12/03 05:51:32;;;;;;;0.50;0.10;;;2.60;1.00;;;;;;6155758;23;20405;-77
2022/12/03 05:54:00;;;;;;;0.50;0.10;;;2.60;1.00;;;;;;6154590;23;20421;-76
2022/12/03 05:56:28;;;;;;;1.53;1.20;;;2.60;1.00;;;;;;6155211;23;20421;-77
2022/12/03 05:58:55;;;;;;;0.50;0.10;;;2.60;1.00;;;;;;6155498;23;20461;-77
2022/12/03 06:01:23;;;;;;;0.70;0.40;;;2.60;1.00;;;;;;6155325;23;20432;-77
2022/12/03 06:03:51;;;;;;;0.50;0.10;;;2.60;1.00;;;;;;6154685;23;20428;-76
2022/12/03 06:06:20;;;;;;;0.50;0.10;;;2.60;1.00;;;;;;6155085;23;20473;-76
2022/12/03 06:08:48;;;;;;;0.50;0.10;;;2.60;1.00;;;;;;6155608;23;20409;-76
2022/12/03 06:11:16;;;;;;;0.50;0.20;;;2.60;1.00;;;;;;6155451;23;20401;-76
2022/12/03 06:13:43;;;;;;;0.50;0.10;;;2.60;1.00;;;;;;6154542;23;20456;-76
2022/12/03 06:16:11;;;;;;;0.50;0.10;;;2.60;1.00;;;;;;6154420;23;20433;-76
2022/12/03 06:18:39;;;;;;;0.70;0.70;;;2.60;1.00;;;;;;6155183;23;20420;-76
2022/12/03 06:21:07;;;;;;;0.80;0.80;;;2.70;1.00;;;;;;6155379;23;20459;-75
2022/12/03 06:23:43;;;;;;;0.50;0.10;;;2.70;1.00;;;;;;6154834;23;21012;-75
2022/12/03 06:26:11;;;;;;;0.50;0.10;;;2.70;1.00;;;;;;6155592;23;20441;-76
2022/12/03 06:28:38;;;;;;;0.50;0.20;;;2.70;1.00;;;;;;6155779;23;20409;-76
2022/12/03 06:31:06;;;;;;;3.27;1.53;;;2.70;1.00;;;;;;6154197;23;20874;-75
2022/12/03 06:33:34;;;;;;;0.50;0.10;;;2.60;1.00;;;;;;6153101;23;20488;-75
2022/12/03 06:36:02;;;;;;;0.50;0.10;;;2.60;1.00;;;;;;6152690;23;20549;-76
2022/12/03 06:38:29;;;;;;;3.07;0.60;;;2.60;1.00;;;;;;6155043;23;20456;-75
2022/12/03 06:40:58;;;;;;;0.50;0.10;;;2.60;1.00;;;;;;6154486;23;20416;-75
2022/12/03 06:43:26;;;;;;;0.50;0.10;;;2.60;1.00;;;;;;6154264;23;20883;-75
2022/12/03 06:45:54;;;;;;;2.27;2.10;;;2.70;1.00;;;;;;6154706;23;20941;-76
2022/12/03 06:48:22;;;;;;;0.50;0.10;;;2.60;1.00;;;;;;6154342;23;20771;-76
2022/12/03 06:50:50;;;;;;;0.60;0.20;;;2.70;1.00;;;;;;6155036;23;20898;-76
2022/12/03 06:53:18;;;;;;;0.50;0.20;;;2.70;1.00;;;;;;6155045;23;20404;-76
2022/12/03 06:55:45;;;;;;;0.60;0.10;;;2.60;1.00;;;;;;6155201;23;20433;-77
2022/12/03 06:58:15;;;;;;;0.60;0.30;;;2.70;1.00;;;;;;6154997;23;20405;-76
2022/12/03 07:00:42;;;;;;;0.60;0.40;;;2.70;1.00;;;;;;6154828;23;20463;-77
2022/12/03 07:03:10;;;;;;;0.50;0.20;;;2.60;1.00;;;;;;6154472;23;20409;-77
2022/12/03 07:05:38;;;;;;;0.50;0.10;;;2.60;1.00;;;;;;6154791;23;20433;-77
2022/12/03 07:08:06;;;;;;;0.50;0.10;;;2.60;1.00;;;;;;6154721;23;20437;-76
2022/12/03 07:10:34;;;;;;;0.50;0.20;;;2.60;1.00;;;;;;6154317;23;20397;-77
2022/12/03 07:13:02;;;;;;;1.00;0.80;;;2.60;1.00;;;;;;6154325;23;20405;-76
2022/12/03 07:15:31;;;;;;;0.50;0.20;;;2.50;1.00;;;;;;6154213;23;20432;-76
2022/12/03 07:18:00;;;;;;;0.60;0.53;;;2.50;1.00;;;;;;6154829;23;20461;-76
2022/12/03 07:20:27;;;;;;;0.50;0.10;;;2.60;1.00;;;;;;6153897;23;20405;-76
2022/12/03 07:22:55;;;;;;;0.50;0.30;;;2.50;1.00;;;;;;6154389;23;20409;-76
2022/12/03 07:25:23;;;;;;;0.57;0.33;;;2.50;1.00;;;;;;6154725;23;20429;-76
2022/12/03 07:27:51;;;;;;;0.80;0.30;;;2.50;1.00;;;;;;6154485;23;20441;-75
2022/12/03 07:30:19;;;;;;;0.50;0.10;;;2.50;1.00;;;;;;6152761;23;20512;-75
2022/12/03 07:32:49;;;;;;;1.07;0.87;;;2.60;1.00;;;;;;6154450;23;20405;-75
2022/12/03 07:35:17;;;;;;;0.50;0.10;;;2.60;1.00;;;;;;6155072;23;20409;-77
2022/12/03 07:37:44;;;;;;;0.50;0.10;;;2.60;1.00;;;;;;6154832;23;20408;-75
2022/12/03 07:40:13;;;;;;;0.50;0.10;;;2.60;1.00;;;;;;6153456;23;20405;-76
2022/12/03 07:42:41;;;;;;;0.50;0.17;;;2.60;1.00;;;;;;6153310;23;20409;-76
2022/12/03 07:45:10;;;;;;;0.97;0.97;;;2.70;1.00;;;;;;6152836;23;20400;-77
2022/12/03 07:47:38;;;;;;;0.90;0.43;;;2.70;1.00;;;;;;6154437;23;20492;-76
2022/12/03 07:50:08;;;;;;;0.60;0.20;;;2.70;1.00;;;;;;6155059;23;20413;-77
2022/12/03 07:52:36;;;;;;;0.50;0.10;;;2.70;1.00;;;;;;6152532;23;20413;-78
2022/12/03 07:55:04;;;;;;;3.83;3.63;;;2.70;1.00;;;;;;6154660;23;20405;-77
2022/12/03 07:57:32;;;;;;;0.50;0.10;;;2.80;1.00;;;;;;6154632;23;20467;-77
2022/12/03 08:00:00;;;;;;;0.87;0.30;;;2.80;1.00;;;;;;6155882;23;20408;-77
2022/12/03 08:02:28;;;;;;;1.17;1.07;;;2.80;1.00;;;;;;6156361;23;20428;-77
2022/12/03 08:04:56;;;;;;;0.50;0.10;;;2.80;1.00;;;;;;6155996;23;20459;-77
2022/12/03 08:07:25;;;;;;;0.50;0.10;;;2.80;1.00;;;;;;6156386;23;20495;-77
2022/12/03 08:09:53;;;;;;;0.50;0.10;;;2.80;1.00;;;;;;6157442;23;20737;-77
2022/12/03 08:12:38;;;;;;;0.60;0.20;;;2.90;1.00;;;;;;6156635;23;20460;-77
2022/12/03 08:15:11;;;;;;;0.50;0.10;;;2.90;1.00;;;;;;6160396;23;20409;-77
2022/12/03 08:17:39;;;;;;;1.03;1.03;;;2.90;1.00;;;;;;6156555;23;20417;-78
2022/12/03 08:20:12;;;;;;;0.60;0.37;;;2.90;1.00;;;;;;6156986;23;20428;-77
2022/12/03 08:22:43;;;;;;;0.77;0.67;;;2.90;1.00;;;;;;6157536;23;20405;-78
2022/12/03 08:25:18;;;;;;;11.50;9.57;;;2.90;1.00;;;;;;6157222;23;20423;-77
2022/12/03 08:27:46;;;;;;;3.20;3.00;;;3.00;1.00;;;;;;6155907;23;20757;-77
2022/12/03 08:30:16;;;;;;;1.27;0.73;;;3.00;1.00;;;;;;6155914;23;20405;-77
2022/12/03 08:32:44;;;;;;;0.50;0.30;;;3.00;1.00;;;;;;6155484;23;20404;-77
2022/12/03 08:35:13;;;;;;;1.87;0.90;;;3.10;1.00;;;;;;6156335;23;20460;-76
2022/12/03 08:37:42;;;;;;;0.50;0.10;;;3.10;1.00;;;;;;6156132;23;20397;-77
2022/12/03 08:40:22;;;;;;;2.57;2.37;;;3.00;1.00;;;;;;6156131;23;20409;-75
2022/12/03 08:42:50;;;;;;;4.37;0.70;;;3.10;1.00;;;;;;6157851;23;20385;-75
2022/12/03 08:45:38;;;;;;;1.40;1.30;;;3.10;1.00;;;;;;6156262;23;20503;-74
2022/12/03 08:48:21;;;;;;;0.50;0.10;;;3.10;1.00;;;;;;6155836;23;20436;-74
2022/12/03 08:50:49;;;;;;;2.20;1.40;;;3.20;1.00;;;;;;6155544;23;20416;-74
2022/12/03 08:53:35;;;;;;;0.50;0.10;;;3.10;1.00;;;;;;6155253;23;20916;-74
2022/12/03 08:56:06;;;;;;;0.50;0.20;;;3.20;1.00;;;;;;6156107;23;20424;-75
2022/12/03 08:58:38;;;;;;;0.50;0.30;;;3.20;1.00;;;;;;6156780;23;20405;-79
2022/12/03 09:01:32;;;;;;;5.80;2.50;;;3.20;1.00;;;;;;6162229;23;20411;-77
2022/12/03 09:04:22;;;;;;;0.50;0.20;;;3.10;1.00;;;;;;6159772;23;20405;-77
2022/12/03 09:06:51;;;;;;;1.50;1.40;;;3.10;1.00;;;;;;6156443;23;20421;-78
2022/12/03 09:09:20;;;;;;;1.10;0.20;;;5.10;1.00;;;;;;6155609;23;20487;-77
2022/12/03 09:11:48;;;;;;;0.50;0.10;;;3.10;1.00;;;;;;6156660;23;20437;-76
2022/12/03 09:14:19;;;;;;;1.43;1.20;;;3.10;1.00;;;;;;6152731;23;20413;-77
2022/12/03 09:16:50;;;;;;;0.50;0.10;;;3.10;1.00;;;;;;6154413;23;20439;-76
2022/12/03 09:19:18;;;;;;;0.50;0.10;;;3.10;1.00;;;;;;6154624;23;20420;-75
2022/12/03 09:21:46;;;;;;;0.50;0.10;;;3.20;1.00;;;;;;6154832;23;20417;-74
2022/12/03 09:24:14;;;;;;;0.60;0.40;;;3.20;1.00;;;;;;6155059;23;20460;-74
2022/12/03 09:26:43;;;;;;;2.30;2.13;;;3.20;1.00;;;;;;6155055;23;20417;-73
2022/12/03 09:29:11;;;;;;;1.60;1.50;;;3.20;1.00;;;;;;6154762;23;20448;-73
2022/12/03 09:31:40;;;;;;;2.70;2.50;;;3.30;1.00;;;;;;6154581;23;20413;-73
2022/12/03 09:34:08;;;;;;;1.57;1.47;;;3.30;1.00;;;;;;6153669;23;20782;-73
2022/12/03 09:36:36;;;;;;;0.60;0.40;;;3.40;1.00;;;;;;6154430;23;20428;-74
2022/12/03 09:39:05;;;;;;;1.47;1.37;;;3.40;1.00;;;;;;6154785;23;20712;-74
2022/12/03 09:41:32;;;;;;;0.77;0.57;;;3.40;1.00;;;;;;6154924;23;20390;-73
2022/12/03 09:44:02;;;;;;;0.83;0.83;;;3.50;1.00;;;;;;6154836;23;21078;-73
2022/12/03 09:46:33;;;;;;;0.50;0.10;;;3.50;1.00;;;;;;6154653;23;20485;-75
2022/12/03 09:49:02;;;;;;;0.80;0.80;;;3.50;1.00;;;;;;6154928;23;20492;-75
2022/12/03 09:51:32;;;;;;;3.47;3.17;;;3.50;1.00;;;;;;6155157;23;20397;-73
2022/12/03 09:54:01;;;;;;;0.60;0.50;;;3.50;1.00;;;;;;6155066;23;20401;-75
2022/12/03 09:56:29;;;;;;;2.30;1.57;;;3.60;1.00;;;;;;6154550;23;20953;-75
2022/12/03 09:58:59;;;;;;;0.60;0.37;;;3.60;1.00;;;;;;6154807;23;20778;-75
2022/12/03 10:01:28;;;;;;;0.50;0.20;;;3.60;1.00;;;;;;6154758;23;20448;-78
2022/12/03 10:03:58;;;;;;;3.90;3.60;;;3.50;1.00;;;;;;6153650;23;20425;-77
2022/12/03 10:06:26;;;;;;;0.70;0.67;;;3.50;1.00;;;;;;6155210;23;20429;-76
2022/12/03 10:08:55;;;;;;;1.83;1.73;;;3.60;1.00;;;;;;6154800;23;20502;-75
2022/12/03 10:11:24;;;;;;;0.90;0.60;;;3.60;1.00;;;;;;6152294;23;20437;-76
2022/12/03 10:13:54;;;;;;;0.50;0.20;;;3.60;1.00;;;;;;6152747;23;20778;-77
2022/12/03 10:16:22;;;;;;;3.33;3.13;;;;;;;;;;6153876;23;20433;-76
2022/12/03 10:18:54;;;;;;;7.90;7.27;;;3.70;1.00;;;;;;6160014;23;20405;-80
2022/12/03 10:21:34;;;;;;;0.50;0.10;;;3.70;1.00;;;;;;6168902;23;20585;-81
2022/12/03 10:24:19;;;;;;;1.50;1.43;;;3.70;1.00;;;;;;6164616;23;20444;-82
2022/12/03 10:26:49;;;;;;;1.90;1.80;;;3.60;1.00;;;;;;6168147;23;20802;-82
2022/12/03 10:29:20;;;;;;;0.50;0.10;;;3.60;1.00;;;;;;6170070;23;20440;-80
2022/12/03 10:31:55;;;;;;;0.90;0.40;;;3.50;1.00;;;;;;6174145;23;20385;-81
2022/12/03 10:34:30;;;;;;;0.50;0.10;;;3.50;1.00;;;;;;6169337;23;20925;-80
2022/12/03 10:37:10;;;;;;;1.77;1.17;;;3.50;1.00;;;;;;6172509;23;20425;-81
2022/12/03 10:39:59;;;;;;;0.50;0.10;;;3.60;1.00;;;;;;6174029;23;20579;-81
2022/12/03 10:42:29;;;;;;;1.37;1.27;;;3.60;1.00;;;;;;6171442;23;20417;-80
2022/12/03 10:45:18;;;;;;;0.80;0.60;;;;;;;;;;6172756;23;20456;-81
2022/12/03 10:48:02;;;;;;;1.73;1.63;;;3.60;1.00;;;;;;6153931;23;20524;-78
2022/12/03 10:50:32;;;;;;;0.50;0.10;;;3.60;1.00;;;;;;6158450;23;20440;-79
2022/12/03 10:53:00;;;;;;;1.53;0.57;;;3.60;1.00;;;;;;6172379;23;20405;-81
2022/12/03 10:55:33;;;;;;;0.50;0.20;;;3.60;1.00;;;;;;6174537;23;20493;-80
2022/12/03 10:58:01;;;;;;;0.50;0.30;;;;;;;;;;6173962;23;20520;-81
2022/12/03 11:00:29;;;;;;;0.50;0.10;;;3.60;1.00;;;;;;6170940;23;20401;-80
2022/12/03 11:02:57;;;;;;;0.50;0.10;;;3.70;1.00;;;;;;6172734;23;20397;-83
2022/12/03 11:05:27;;;;;;;0.50;0.10;;;3.70;1.00;;;;;;6165468;23;20433;-79
2022/12/03 11:07:57;;;;;;;0.83;0.83;;;3.70;1.00;;;;;;6166844;23;20432;-80
2022/12/03 11:10:25;;;;;;;0.50;0.10;;;3.70;1.00;;;;;;6164505;23;20768;-79
2022/12/03 11:13:39;;;;;;;0.50;0.10;;;3.70;1.00;;;;;;6169743;23;20392;-80
2022/12/03 11:16:07;;;;;;;1.13;0.93;;;;;;;;;;6105588;23;20492;-79
2022/12/03 11:18:58;;;;;;;0.50;0.40;;;3.60;1.00;;;;;;6156054;23;20445;-77
2022/12/03 11:21:26;;;;;;;1.73;1.23;;;3.70;1.00;;;;;;6157166;23;20463;-78
2022/12/03 11:24:20;;;;;;;0.50;0.10;;;3.60;1.00;;;;;;6159789;23;20398;-79
2022/12/03 11:27:21;;;;;;;3.40;3.20;;;3.60;1.00;;;;;;6158921;23;20430;-78
2022/12/03 11:29:55;;;;;;;1.70;1.60;;;3.60;1.00;;;;;;6161978;23;20445;-80
2022/12/03 11:33:08;;;;;;;3.60;1.67;;;3.60;1.00;;;;;;6161452;23;20393;-80
2022/12/03 11:36:06;;;;;;;0.70;0.40;;;3.60;1.00;;;;;;6167799;23;20427;-79
2022/12/03 11:38:52;;;;;;;0.67;0.57;;;3.60;1.00;;;;;;6156151;23;20499;-78
2022/12/03 11:41:33;;;;;;;2.60;2.50;;;3.60;1.00;;;;;;6160920;23;20401;-78
2022/12/03 11:44:32;;;;;;;9.07;8.30;;;3.60;1.00;;;;;;6164857;23;20408;-81
2022/12/03 11:47:08;;;;;;;0.70;0.57;;;3.60;1.00;;;;;;6165673;23;20431;-80
2022/12/03 11:49:54;;;;;;;0.70;0.60;;;3.60;1.00;;;;;;6161041;23;20425;-76
2022/12/03 11:52:29;;;;;;;3.33;0.63;;;3.60;1.00;;;;;;6156457;23;20419;-80
2022/12/03 11:55:01;;;;;;;0.50;0.20;;;3.60;1.00;;;;;;6160860;23;20380;-76
2022/12/03 11:57:34;;;;;;;3.13;2.83;;;4.00;1.00;;;;;;6156865;23;20431;-77
2022/12/03 12:00:13;;;;;;;0.50;0.10;;;3.60;1.00;;;;;;6155974;23;20401;-77
2022/12/03 12:02:41;;;;;;;3.33;3.13;;;3.60;1.00;;;;;;6161862;23;20385;-76
2022/12/03 12:05:17;;;;;;;0.83;0.83;;;3.70;1.00;;;;;;6158965;23;20401;-75
2022/12/03 12:07:46;;;;;;;0.50;0.20;;;3.70;1.00;;;;;;6158794;23;20381;-76
2022/12/03 12:10:30;;;;;;;0.50;0.10;;;3.70;1.00;;;;;;6158132;23;20440;-77
2022/12/03 12:12:59;;;;;;;0.50;0.10;;;3.70;1.00;;;;;;6155165;23;20445;-76
2022/12/03 12:15:43;;;;;;;0.60;0.60;;;3.70;1.00;;;;;;6156648;23;21034;-76
2022/12/03 12:18:37;;;;;;;1.17;1.03;;;3.70;1.00;;;;;;6156424;23;20436;-75
2022/12/03 12:21:41;;;;;;;16.47;8.43;;;3.70;1.00;;;;;;6155307;23;20408;-76
2022/12/03 12:24:39;;;;;;;1.60;1.50;;;3.70;1.00;;;;;;6155531;23;20452;-75
2022/12/03 12:27:09;;;;;;;0.60;0.60;;;3.60;1.00;;;;;;6155438;23;20752;-76
2022/12/03 12:29:40;;;;;;;2.20;1.80;;;3.70;1.00;;;;;;6155385;23;20472;-76
2022/12/03 12:32:14;;;;;;;0.50;0.10;;;3.70;1.00;;;;;;6154843;23;20910;-75
2022/12/03 12:34:44;;;;;;;0.50;0.10;;;3.80;1.00;;;;;;6155277;23;20405;-77
2022/12/03 12:37:19;;;;;;;0.70;0.30;;;3.80;1.00;;;;;;6155827;23;20445;-77
2022/12/03 12:39:47;;;;;;;0.50;0.20;;;3.80;1.00;;;;;;6155904;23;20384;-77
2022/12/03 12:42:29;;;;;;;4.53;4.33;;;3.80;1.00;;;;;;6156585;23;20700;-77
2022/12/03 12:45:05;;;;;;;1.17;0.63;;;3.80;1.00;;;;;;6155473;23;20418;-76
2022/12/03 12:47:34;;;;;;;0.57;0.37;;;3.70;1.00;;;;;;6156084;23;20727;-77
2022/12/03 12:50:06;;;;;;;0.50;0.20;;;3.80;1.00;;;;;;6155230;23;20445;-77
2022/12/03 12:52:33;;;;;;;0.93;0.80;;;3.80;1.00;;;;;;6156356;23;20441;-75
2022/12/03 12:55:01;;;;;;;7.20;3.33;;;3.70;1.00;;;;;;6155241;23;20412;-75
2022/12/03 12:57:33;;;;;;;1.93;1.83;;;3.70;1.00;;;;;;6155462;23;20413;-75
2022/12/03 13:00:05;;;;;;;0.50;0.20;;;3.70;1.00;;;;;;6155469;23;20412;-77
2022/12/03 13:02:44;;;;;;;0.50;0.20;;;3.70;1.00;;;;;;6153801;23;20434;-75
2022/12/03 13:05:13;;;;;;;0.50;0.10;;;3.70;1.00;;;;;;6155108;23;20436;-79
2022/12/03 13:07:43;;;;;;;0.50;0.10;;;3.70;1.00;;;;;;6161428;23;20397;-77
2022/12/03 13:10:27;;;;;;;1.40;1.30;;;3.80;1.00;;;;;;6157728;23;20473;-78
2022/12/03 13:12:55;;;;;;;0.50;0.10;;;3.80;1.00;;;;;;6157479;23;20409;-78
2022/12/03 13:15:41;;;;;;;1.60;1.50;;;3.90;1.00;;;;;;6157016;23;20488;-77
2022/12/03 13:18:37;;;;;;;0.50;0.10;;;3.90;1.00;;;;;;6158630;23;20408;-79
2022/12/03 13:21:19;;;;;;;0.50;0.30;;;3.90;1.00;;;;;;6163113;23;20461;-80
2022/12/03 13:23:47;;;;;;;0.70;0.40;;;3.90;1.00;;;;;;6161109;23;20459;-75
2022/12/03 13:26:22;;;;;;;0.53;0.27;;;3.90;1.00;;;;;;6155782;23;20432;-77
2022/12/03 13:29:11;;;;;;;0.50;0.10;;;3.90;1.00;;;;;;6160765;23;20397;-81
2022/12/03 13:31:42;;;;;;;1.00;0.47;;;;;;;;;;6159783;23;20943;-76
2022/12/03 13:34:18;;;;;;;0.93;0.40;;;3.90;1.00;;;;;;6161655;23;20416;-78
2022/12/03 13:36:50;;;;;;;2.97;2.77;;;3.90;1.00;;;;;;6157521;23;20447;-77
2022/12/03 13:39:30;;;;;;;8.13;4.63;;;3.90;1.00;;;;;;6159286;23;20416;-80
2022/12/03 13:44:56;;;;;;;0.80;0.63;;;3.90;1.00;;;;;;6161066;23;20443;-77
2022/12/03 13:47:25;;;;;;;0.50;0.10;;;3.80;1.00;;;;;;6164246;23;20444;-78
2022/12/03 13:49:56;;;;;;;0.60;0.30;;;3.80;1.00;;;;;;6162629;23;20401;-78
2022/12/03 13:52:25;;;;;;;0.80;0.50;;;3.80;1.00;;;;;;6161615;23;20457;-78
2022/12/03 13:54:55;;;;;;;4.00;3.50;;;3.80;1.00;;;;;;6160199;23;20408;-78
2022/12/03 13:57:23;;;;;;;4.10;3.27;;;3.80;1.00;;;;;;6160845;23;20499;-77
2022/12/03 13:59:51;;;;;;;0.50;0.10;;;3.70;1.00;;;;;;6159027;23;20460;-77
2022/12/03 14:02:19;;;;;;;1.33;1.23;;;3.70;1.00;;;;;;6156277;23;20405;-77
2022/12/03 14:04:48;;;;;;;1.37;1.27;;;3.80;1.00;;;;;;6161125;23;20734;-79
2022/12/03 14:07:22;;;;;;;2.67;2.47;;;3.80;1.00;;;;;;6165880;23;20424;-77
2022/12/03 14:09:49;;;;;;;1.90;1.80;;;3.80;1.00;;;;;;6163788;23;20405;-78
2022/12/03 14:12:27;;;;;;;0.50;0.20;;;3.70;1.00;;;;;;6160815;23;20412;-77
2022/12/03 14:14:56;;;;;;;0.50;0.10;;;3.70;1.00;;;;;;6168525;23;20431;-79
2022/12/03 14:17:23;;;;;;;0.70;0.60;;;3.70;1.00;;;;;;6160429;23;20477;-78
2022/12/03 14:19:53;;;;;;;0.57;0.27;;;3.70;1.00;;;;;;6159914;23;20412;-78
2022/12/03 14:22:24;;;;;;;0.90;0.73;;;3.70;1.00;;;;;;6160281;23;20409;-76
2022/12/03 14:24:52;;;;;;;0.77;0.50;;;3.70;1.00;;;;;;6160647;23;20769;-76
2022/12/03 14:27:21;;;;;;;0.80;0.50;;;3.70;1.00;;;;;;6158700;23;20937;-77
2022/12/03 14:29:49;;;;;;;1.67;0.50;;;3.70;1.00;;;;;;6160919;23;20505;-77
2022/12/03 14:32:17;;;;;;;1.25;1.15;;;3.60;1.00;;;;;;6163786;23;20461;-79
2022/12/03 14:34:44;;;;;;;0.50;0.30;;;3.60;1.00;;;;;;6157541;23;20181;-77
2022/12/03 14:37:14;;;;;;;1.53;1.43;;;3.60;1.00;;;;;;6152694;23;20790;-77
2022/12/03 14:39:42;;;;;;;0.70;0.47;;;3.60;1.00;;;;;;6155234;23;20674;-77
2022/12/03 14:42:12;;;;;;;0.80;0.60;;;3.60;1.00;;;;;;6155489;23;20413;-77
2022/12/03 14:44:40;;;;;;;0.50;0.10;;;3.60;1.00;;;;;;6155257;23;20393;-77
2022/12/03 14:47:09;;;;;;;0.53;0.20;;;;;;;;;;6159276;23;20532;-78
2022/12/03 14:49:37;;;;;;;5.00;3.27;;;3.60;1.00;;;;;;6160848;23;20404;-78
2022/12/03 14:52:05;;;;;;;0.70;0.70;;;;;;;;;;6165371;23;20441;-78
2022/12/03 14:54:41;;;;;;;0.93;0.93;;;;;;;;;;6159563;23;20465;-79
2022/12/03 14:57:11;;;;;;;0.50;0.10;;;3.50;1.00;;;;;;6166414;23;20433;-78
2022/12/03 14:59:39;;;;;;;3.13;2.90;;;3.50;1.00;;;;;;6160545;23;20476;-77
2022/12/03 15:02:08;;;;;;;0.60;0.60;;;3.50;1.00;;;;;;6130150;23;20406;-77
2022/12/03 15:04:36;;;;;;;0.80;0.47;;;3.50;1.00;;;;;;6133503;23;20413;-76
2022/12/03 15:07:05;;;;;;;4.57;4.13;;;3.50;1.00;;;;;;6129603;23;21017;-77
2022/12/03 15:09:33;;;;;;;1.10;0.67;;;3.40;1.00;;;;;;6131588;23;20410;-77
2022/12/03 15:12:02;;;;;;;0.50;0.10;;;3.40;1.00;;;;;;6138791;23;20464;-78
2022/12/03 15:14:30;;;;;;;3.93;3.73;;;3.50;1.00;;;;;;6135460;23;20424;-77
2022/12/03 15:16:58;;;;;;;5.80;4.00;;;3.50;1.00;;;;;;6132303;23;20814;-78
2022/12/03 15:19:26;;;;;;;3.50;3.20;;;4.60;1.00;;;;;;6128909;23;20493;-76
2022/12/03 15:21:54;;;;;;;4.43;2.83;;;3.50;1.00;;;;;;6128829;23;20405;-77
2022/12/03 15:24:22;;;;;;;1.40;1.30;;;3.50;1.00;;;;;;6131075;23;20417;-77
2022/12/03 15:26:51;;;;;;;4.03;1.80;;;3.40;1.00;;;;;;6129822;23;20434;-77
2022/12/03 15:29:21;;;;;;;1.47;1.37;;;3.40;1.00;;;;;;6131476;23;20442;-79
2022/12/03 15:31:48;;;;;;;4.20;3.20;;;3.50;1.00;;;;;;6135175;23;20453;-78
2022/12/03 15:34:16;;;;;;;4.07;1.17;;;3.50;1.00;;;;;;6135514;23;20409;-80
2022/12/03 15:36:49;;;;;;;0.50;0.17;;;3.60;1.00;;;;;;6135437;23;20426;-78
2022/12/03 15:39:17;;;;;;;3.40;3.10;;;3.50;1.00;;;;;;6135048;23;20422;-78
2022/12/03 15:41:45;;;;;;;0.50;0.10;;;3.60;1.00;;;;;;6135678;23;20410;-78
2022/12/03 15:44:13;;;;;;;1.33;1.23;;;3.50;1.00;;;;;;6136637;23;20456;-78
2022/12/03 15:46:42;;;;;;;0.80;0.63;;;3.50;1.00;;;;;;6132010;23;20432;-78
2022/12/03 15:49:10;;;;;;;1.00;0.87;;;3.50;1.00;;;;;;6136219;23;20410;-78
2022/12/03 15:51:38;;;;;;;17.67;0.77;;;3.50;1.00;;;;;;6142981;23;20437;-78
2022/12/03 15:54:06;;;;;;;2.00;1.90;;;;;;;;;;6136018;23;20709;-78
2022/12/03 15:56:36;;;;;;;0.50;0.10;;;3.50;1.00;;;;;;6132348;23;20430;-77
2022/12/03 15:59:07;;;;;;;0.77;0.63;;;3.50;1.00;;;;;;6131545;23;20781;-77
2022/12/03 16:01:35;;;;;;;2.80;2.60;;;3.50;1.00;;;;;;6135051;23;20472;-78
2022/12/03 16:04:04;;;;;;;0.60;0.30;;;3.60;1.00;;;;;;6130182;23;20425;-77
2022/12/03 16:06:32;;;;;;;0.50;0.10;;;3.60;1.00;;;;;;6131530;23;20437;-78
2022/12/03 16:09:00;;;;;;;3.80;3.20;;;3.60;1.00;;;;;;6137578;23;20430;-78
2022/12/03 16:11:28;;;;;;;1.20;1.20;;;3.60;1.00;;;;;;6131858;23;20449;-77
2022/12/03 16:13:56;;;;;;;1.37;0.43;;;3.50;1.00;;;;;;6130027;23;20409;-77
2022/12/03 16:16:24;;;;;;;0.70;0.60;;;3.50;1.00;;;;;;6136631;23;20518;-79
2022/12/03 16:18:52;;;;;;;0.70;0.30;;;3.50;1.00;;;;;;6135973;23;20405;-77
2022/12/03 16:21:21;;;;;;;0.50;0.20;;;3.50;1.00;;;;;;6134922;23;20942;-78
2022/12/03 16:23:54;;;;;;;3.03;2.20;;;3.50;1.00;;;;;;6132952;23;20387;-79
2022/12/03 16:26:21;;;;;;;1.90;1.80;;;3.50;1.00;;;;;;6134531;23;20492;-78
2022/12/03 16:28:49;;;;;;;0.50;0.10;;;3.50;1.00;;;;;;6133744;23;20408;-78
2022/12/03 16:31:17;;;;;;;0.60;0.33;;;3.50;1.00;;;;;;6136100;23;20485;-78
2022/12/03 16:33:45;;;;;;;0.50;0.30;;;3.60;1.00;;;;;;6130115;23;20409;-77
2022/12/03 16:36:14;;;;;;;0.50;0.30;;;3.60;1.00;;;;;;6130754;23;20518;-80
2022/12/03 16:38:43;;;;;;;0.50;0.20;;;3.60;1.00;;;;;;6133593;23;20418;-77
2022/12/03 16:41:11;;;;;;;2.40;1.50;;;3.60;1.00;;;;;;6131251;23;20421;-77
2022/12/03 16:43:39;;;;;;;24.10;21.97;;;3.60;1.00;;;;;;6137702;23;20390;-77
2022/12/03 16:46:19;;;;;;;0.50;0.10;;;3.60;1.00;;;;;;6136291;23;20430;-78
2022/12/03 16:48:48;;;;;;;4.00;3.17;;;3.60;1.00;;;;;;6140647;23;20406;-77
2022/12/03 16:51:18;;;;;;;0.50;0.10;;;;;;;;;;6140417;23;20442;-79
2022/12/03 16:53:47;;;;;;;0.50;0.20;;;4.80;1.00;;;;;;6139795;23;20405;-78
2022/12/03 16:56:15;;;;;;;0.90;0.70;;;3.60;1.00;;;;;;6140788;23;20425;-79
2022/12/03 16:58:43;;;;;;;11.73;8.30;;;3.60;1.00;;;;;;6132586;23;20409;-78
2022/12/03 17:01:12;;;;;;;7.40;1.07;;;3.60;1.00;;;;;;6131514;23;20437;-79
2022/12/03 17:03:41;;;;;;;0.67;0.67;;;3.60;1.00;;;;;;6130242;23;20414;-78
2022/12/03 17:06:08;;;;;;;0.50;0.10;;;3.60;1.00;;;;;;6128787;23;20418;-78
2022/12/03 17:08:36;;;;;;;0.50;0.20;;;3.60;1.00;;;;;;6133357;23;20406;-78
2022/12/03 17:11:06;;;;;;;0.77;0.77;;;3.60;1.00;;;;;;6132459;23;20448;-77
2022/12/03 17:13:34;;;;;;;0.50;0.10;;;3.60;1.00;;;;;;6135018;23;20442;-78
2022/12/03 17:16:03;;;;;;;0.67;0.60;;;;;;;;;;6130554;23;20465;-79
2022/12/03 17:18:32;;;;;;;1.70;1.60;;;;;;;;;;6143068;23;20426;-80
2022/12/03 17:21:00;;;;;;;0.50;0.10;;;3.50;1.00;;;;;;6143833;23;20441;-80
2022/12/03 17:23:27;;;;;;;0.70;0.53;;;3.50;1.00;;;;;;6141722;23;20477;-80
2022/12/03 17:25:57;;;;;;;1.50;1.40;;;3.50;1.00;;;;;;6142173;23;20434;-79
2022/12/03 17:28:27;;;;;;;0.80;0.67;;;3.50;1.00;;;;;;6141595;23;20402;-80
2022/12/03 17:30:55;;;;;;;3.27;1.83;;;3.40;1.00;;;;;;6146216;23;20394;-80
2022/12/03 17:33:25;;;;;;;0.50;0.10;;;3.40;1.00;;;;;;6146496;23;20427;-79
2022/12/03 17:35:53;;;;;;;6.63;2.73;;;3.50;1.00;;;;;;6145718;23;20425;-79
2022/12/03 17:38:21;;;;;;;2.97;1.53;;;3.50;1.00;;;;;;6144486;23;20409;-81